TAM weather

General Francisco Javier Mina International Airport
Tampico, Tamaulipas, Mexico

Public forecast

Using degrees Celsius for public forecast. Weather courtesy of forecast.io.

METAR (pilot weather report)

Retrieved 2019/04/22 03:45 UTC (41 minutes ago):

MMTM 220345Z E12012KT 7SM BKN200 23/21 A2998 RMK 8/001 BR

TAF (pilot weather forecast)

Forecast is more than 6 hours old.

Retrieved 2019/04/21 18:37 UTC (10 hours ago):

TAF MMTM 211633Z 2118/2218 12010KT P6SM SKC FM220200 12008KT P6SM SCT015 TEMPO 2210/2214 3SM BR BKN015 FM221600 12010KT P6SM SCT020